world map with ALL marked

ALL - Airport

This information may not be accurate or current and is not valid for navigation or flight planning. No warranty of fitness for any purpose is made or implied.

flag of Liguriaflag of Italy

Donate via PayPal

Additional information is available on the NEW Great Circle Mapper

Location
City:  Albenga, Liguria, Italy
ICAO / IATA:LIMG / ALL

Details
Type:Airport (Aerodrome, Airfield)
Use:Public/Civil
Latitude:44°03'02"N (44.050608)
Longitude:8°07'39"E (8.127428)
Datum:WGS 1984
Elevation:148 ft (45 m)
Runways:1
Longest:4688 × 148 ft (1429 × 45 m)

Time
Timezone:UTC+1 (DST+4)
Local Time:

Weather
METAR:LIMG  041350Z 02009G19KT 330V060 CAVOK 15/M06 Q1022

Related Locations
Nearby:
Farthest:CHT: 12211 mi / 19652 km
Waitangi [Tuuta], CIT, NZ

Find:

   beyond  
but within

Other Information
Maps:
Sources:

  


 


Great Circle Mapper   Great Circle Mapper
Great Circle Mapper FAQ   Great Circle Mapper FAQ
  Karl's Home Page
KLSē   KLSē Home
   GC on Facebook
Airlines of the World   Airlines of the World
Donate via PayPal


Copyright © 2004-2019, Karl L. Swartz. All rights reserved.
All trademarks mentioned herein belong to their respective owners.

Please see credits for attribution and copyright information.

Karl Swartz <karl@kls2.com>
  Powered by FreeBSD
Valid HTML 4.01!
Labeled with ICRA
hCard Microformat
Geo Microformat